Time;durP1;ratioP1;P1;durP2;ratioP2;P2;SDS_P1;SDS_P2;PMS_P1;PMS_P2;Temp;Humidity;BMP_temperature;BMP_pressure;BME280_temperature;BME280_humidity;BME280_pressure;Samples;Min_cycle;Max_cycle;Signal;HPM_P1;HPM_P2
2022/09/05 00:02:01;;;;;;;25.63;21.40;;;12.60;99.90;;;;;;20701751;28;20101;-65
2022/09/05 00:12:07;;;;;;;27.70;22.48;;;12.90;99.90;;;;;;20716881;28;20454;-65
2022/09/05 00:22:32;;;;;;;28.13;23.42;;;13.00;99.90;;;;;;20731853;28;20569;-65
2022/09/05 00:32:54;;;;;;;36.00;26.38;;;13.00;99.90;;;;;;20742592;28;20046;-57
2022/09/05 00:43:08;;;;;;;32.80;25.95;;;12.80;99.90;;;;;;20722383;28;20351;-57
2022/09/05 00:53:32;;;;;;;36.42;26.50;;;12.60;99.90;;;;;;20646171;28;20101;-56
2022/09/05 01:03:51;;;;;;;33.28;24.48;;;12.50;99.90;;;;;;20675450;28;20046;-54
2022/09/05 01:14:01;;;;;;;29.02;23.15;;;12.60;99.90;;;;;;20642516;28;20113;-56
2022/09/05 01:24:12;;;;;;;;;;;12.70;99.90;;;;;;20646762;28;20093;-54
2022/09/05 01:34:19;;;;;;;25.60;20.58;;;12.80;99.90;;;;;;20642326;28;20373;-55
2022/09/05 01:44:25;;;;;;;20.45;18.20;;;12.90;99.90;;;;;;20628078;28;20081;-54
2022/09/05 01:55:05;;;;;;;19.95;16.02;;;12.70;99.90;;;;;;20703924;28;20076;-54
2022/09/05 02:05:19;;;;;;;19.03;16.43;;;12.50;99.90;;;;;;20725682;28;20050;-54
2022/09/05 02:15:26;;;;;;;25.52;20.17;;;12.10;99.90;;;;;;20797486;28;20423;-54
2022/09/05 02:26:16;;;;;;;26.02;21.35;;;11.90;99.90;;;;;;20739555;28;20029;-54
2022/09/05 02:36:35;;;;;;;31.23;23.17;;;11.90;99.90;;;;;;20459050;28;20044;-55
2022/09/05 02:47:27;;;;;;;36.20;27.07;;;11.80;99.90;;;;;;20451757;28;20043;-54
2022/09/05 02:57:45;;;;;;;29.27;22.52;;;11.80;99.90;;;;;;20288885;28;20478;-54
2022/09/05 03:08:06;;;;;;;36.42;27.25;;;11.80;99.90;;;;;;20363808;28;20055;-54
2022/09/05 03:18:27;;;;;;;29.63;21.70;;;11.60;99.90;;;;;;20484909;28;20043;-55
2022/09/05 03:28:51;;;;;;;33.83;25.23;;;11.60;99.90;;;;;;20584975;28;20456;-54
2022/09/05 03:39:29;;;;;;;31.08;24.63;;;11.60;99.90;;;;;;20697955;28;20058;-53
2022/09/05 03:49:54;;;;;;;30.15;22.48;;;11.60;99.90;;;;;;20727994;28;20088;-54
2022/09/05 04:00:19;;;;;;;25.02;17.95;;;11.60;99.90;;;;;;20753110;28;20042;-54
2022/09/05 04:10:28;;;;;;;23.38;16.63;;;11.70;99.90;;;;;;20731443;28;20038;-54
2022/09/05 04:21:13;;;;;;;20.25;16.10;;;11.70;99.90;;;;;;20741531;28;20108;-53
2022/09/05 04:31:29;;;;;;;24.30;20.27;;;12.00;99.90;;;;;;20760785;28;20046;-54
2022/09/05 04:41:38;;;;;;;24.85;18.63;;;12.10;99.90;;;;;;20768037;28;20038;-54
2022/09/05 04:52:00;;;;;;;20.88;16.13;;;12.00;99.90;;;;;;20753999;28;20123;-55
2022/09/05 05:02:24;;;;;;;20.38;18.00;;;12.20;99.90;;;;;;20743325;28;20097;-54
2022/09/05 05:13:03;;;;;;;26.67;20.50;;;12.40;99.90;;;;;;20708774;28;20483;-54
2022/09/05 05:23:12;;;;;;;29.13;22.13;;;12.50;99.90;;;;;;20777164;28;20037;-55
2022/09/05 05:33:33;;;;;;;31.23;24.70;;;12.70;99.90;;;;;;20728558;28;20525;-55
2022/09/05 05:43:39;;;;;;;30.10;25.45;;;12.70;99.90;;;;;;20705112;28;20046;-54
2022/09/05 05:54:25;;;;;;;28.52;24.65;;;12.80;99.90;;;;;;20708862;28;20096;-54
2022/09/05 06:04:46;;;;;;;23.27;20.30;;;13.10;99.90;;;;;;20751117;28;20054;-53
2022/09/05 06:15:24;;;;;;;21.00;18.80;;;13.60;99.90;;;;;;20738050;28;20026;-55
2022/09/05 06:25:30;;;;;;;21.92;19.48;;;14.20;99.90;;;;;;20706379;28;20038;-60
2022/09/05 06:35:44;;;;;;;17.02;15.32;;;14.80;99.90;;;;;;20720000;28;20064;-60
2022/09/05 06:45:59;;;;;;;17.52;15.73;;;15.40;99.90;;;;;;20725990;28;20100;-55
2022/09/05 06:56:15;;;;;;;19.08;17.17;;;16.40;99.90;;;;;;20733707;28;20041;-61
2022/09/05 07:06:36;;;;;;;13.95;12.68;;;18.40;99.90;;;;;;20752783;28;20038;-61
2022/09/05 07:16:46;;;;;;;15.23;13.63;;;18.80;99.90;;;;;;20752639;28;20045;-61
2022/09/05 07:26:50;;;;;;;14.10;12.60;;;18.40;99.90;;;;;;20720342;28;20049;-58
2022/09/05 07:36:55;;;;;;;12.35;11.18;;;19.20;99.90;;;;;;20747923;28;20030;-58
2022/09/05 07:47:05;;;;;;;10.27;9.30;;;19.70;99.90;;;;;;20749489;28;20483;-57
2022/09/05 07:57:15;;;;;;;10.75;9.82;;;20.60;99.90;;;;;;20731447;28;20104;-57
2022/09/05 08:07:30;;;;;;;15.15;13.75;;;20.40;99.90;;;;;;20757844;28;20103;-62
2022/09/05 08:17:45;;;;;;;12.95;11.70;;;20.20;99.90;;;;;;20716105;28;20033;-57
2022/09/05 08:28:05;;;;;;;13.82;12.60;;;20.10;99.90;;;;;;20727577;28;20112;-57
2022/09/05 08:38:10;;;;;;;16.15;13.65;;;20.00;99.90;;;;;;20735118;28;20037;-60
2022/09/05 08:48:15;;;;;;;14.25;12.85;;;20.60;99.90;;;;;;20728782;28;20057;-57
2022/09/05 08:58:52;;;;;;;13.40;12.05;;;21.00;99.90;;;;;;20741454;28;20038;-57
2022/09/05 09:09:14;;;;;;;13.75;12.43;;;21.30;99.90;;;;;;20743291;28;20390;-60
2022/09/05 09:19:22;;;;;;;13.88;12.50;;;21.70;99.90;;;;;;20730551;28;20041;-57
2022/09/05 09:29:26;;;;;;;13.68;12.23;;;21.50;99.90;;;;;;20724683;28;20033;-58
2022/09/05 09:39:37;;;;;;;13.73;12.43;;;21.60;99.90;;;;;;20738142;28;20418;-61
2022/09/05 09:50:18;;;;;;;14.77;13.38;;;21.40;99.90;;;;;;20731816;28;20049;-58
2022/09/05 10:00:23;;;;;;;12.43;11.23;;;22.90;99.90;;;;;;20736137;28;20041;-58
2022/09/05 10:10:28;;;;;;;11.68;10.45;;;24.00;99.90;;;;;;20736723;28;20033;-58
2022/09/05 10:20:44;;;;;;;10.38;9.38;;;25.70;99.90;;;;;;20725126;28;20076;-59
2022/09/05 10:31:05;;;;;;;9.05;8.25;;;25.20;99.90;;;;;;20735024;28;20103;-61
2022/09/05 10:41:18;;;;;;;11.00;10.00;;;25.70;99.90;;;;;;20702849;28;20034;-62
2022/09/05 10:51:42;;;;;;;11.57;10.48;;;24.70;99.90;;;;;;20737314;28;20045;-57
2022/09/05 11:02:18;;;;;;;10.70;9.70;;;23.80;99.90;;;;;;20701314;28;20565;-58
2022/09/05 11:12:21;;;;;;;13.20;10.60;;;24.50;99.90;;;;;;20719534;28;20386;-58
2022/09/05 11:22:29;;;;;;;12.20;11.02;;;25.60;99.90;;;;;;20720145;28;20034;-58
2022/09/05 11:32:53;;;;;;;9.73;8.83;;;24.80;99.90;;;;;;20741308;28;20497;-61
2022/09/05 11:43:15;;;;;;;12.07;10.98;;;23.80;99.90;;;;;;20745547;28;20046;-58
2022/09/05 11:53:36;;;;;;;12.70;11.45;;;23.80;99.90;;;;;;20264658;29;20041;-61
2022/09/05 12:03:51;;;;;;;12.77;11.57;;;25.60;99.90;;;;;;20262438;29;20048;-59
2022/09/05 12:14:18;;;;;;;9.93;9.02;;;25.10;99.90;;;;;;20271837;29;20136;-62
2022/09/05 12:24:56;;;;;;;11.55;10.52;;;23.80;99.90;;;;;;20385007;28;20046;-56
2022/09/05 12:34:59;;;;;;;;;;;25.30;99.90;;;;;;20649533;28;20038;-59
2022/09/05 12:45:14;;;;;;;12.40;11.10;;;26.90;99.90;;;;;;20645561;28;19914;-58
2022/09/05 12:55:18;;;;;;;11.40;9.25;;;27.00;99.90;;;;;;20724147;28;20046;-59
2022/09/05 13:05:26;;;;;;;10.80;7.93;;;26.60;99.90;;;;;;20740493;28;20046;-58
2022/09/05 13:15:35;;;;;;;9.57;8.68;;;26.30;99.90;;;;;;20735642;28;20041;-57
2022/09/05 13:25:42;;;;;;;10.65;8.95;;;25.50;99.90;;;;;;20736373;28;20088;-57
2022/09/05 13:36:02;;;;;;;11.90;10.70;;;23.70;99.90;;;;;;20726161;28;20042;-58
2022/09/05 13:46:34;;;;;;;13.75;11.45;;;23.20;99.90;;;;;;20741685;28;20100;-57
2022/09/05 13:56:52;;;;;;;12.18;10.45;;;22.50;99.90;;;;;;20709443;28;20041;-57
2022/09/05 14:07:25;;;;;;;13.32;11.98;;;22.40;99.90;;;;;;20726919;28;20046;-57
2022/09/05 14:17:49;;;;;;;11.38;10.13;;;22.00;99.90;;;;;;20744960;28;20091;-62
2022/09/05 14:27:54;;;;;;;10.93;9.82;;;21.20;99.90;;;;;;20753732;28;20671;-61
2022/09/05 14:38:37;;;;;;;11.93;10.50;;;21.30;99.90;;;;;;20727463;28;20097;-62
2022/09/05 14:49:13;;;;;;;12.65;11.50;;;21.00;99.90;;;;;;20734055;28;20324;-56
2022/09/05 14:59:19;;;;;;;12.52;11.10;;;20.90;99.90;;;;;;20734032;28;20042;-62
2022/09/05 15:09:22;;;;;;;13.38;12.07;;;21.10;99.90;;;;;;20768934;28;20038;-62
2022/09/05 15:19:55;;;;;;;15.55;13.95;;;20.80;99.90;;;;;;20744729;28;20072;-61
2022/09/05 15:30:01;;;;;;;11.77;10.68;;;20.50;99.90;;;;;;20760831;28;20042;-56
2022/09/05 15:40:07;;;;;;;14.02;12.68;;;20.00;99.90;;;;;;20775099;28;20681;-61
2022/09/05 15:50:13;;;;;;;15.73;13.38;;;19.70;99.90;;;;;;20729875;28;20050;-61
2022/09/05 16:00:42;;;;;;;11.82;10.65;;;19.40;99.90;;;;;;20772089;28;20041;-63
2022/09/05 16:10:45;;;;;;;14.30;12.82;;;19.00;99.90;;;;;;20745245;28;20116;-55
2022/09/05 16:20:56;;;;;;;15.57;14.07;;;18.60;99.90;;;;;;20774756;28;20046;-61
2022/09/05 16:31:02;;;;;;;17.92;16.05;;;18.20;99.90;;;;;;20734206;28;20145;-61
2022/09/05 16:41:10;;;;;;;18.08;16.23;;;17.80;99.90;;;;;;20746899;28;20108;-61
2022/09/05 16:51:36;;;;;;;22.73;20.42;;;17.40;99.90;;;;;;20750043;28;20123;-54
2022/09/05 17:01:57;;;;;;;21.73;18.35;;;17.00;99.90;;;;;;20764220;28;20081;-53
2022/09/05 17:12:06;;;;;;;23.75;21.05;;;16.80;99.90;;;;;;20779272;28;20037;-52
2022/09/05 17:22:32;;;;;;;21.83;19.30;;;16.60;99.90;;;;;;20723221;28;20042;-60
2022/09/05 17:32:38;;;;;;;21.67;18.58;;;16.60;99.90;;;;;;20724672;28;20060;-52
2022/09/05 17:42:47;;;;;;;27.23;21.35;;;16.10;99.90;;;;;;20738294;28;20549;-54
2022/09/05 17:53:01;;;;;;;27.50;23.10;;;15.80;99.90;;;;;;20741196;28;20075;-60
2022/09/05 18:03:04;;;;;;;26.65;21.42;;;15.40;99.90;;;;;;20745888;28;20069;-54
2022/09/05 18:13:18;;;;;;;27.60;23.33;;;15.00;99.90;;;;;;20774161;28;20045;-52
2022/09/05 18:23:39;;;;;;;24.48;21.30;;;14.90;99.90;;;;;;20747386;28;20034;-51
2022/09/05 18:34:01;;;;;;;;;;;14.90;99.90;;;;;;20733207;28;20064;-53
2022/09/05 18:44:07;;;;;;;28.77;24.08;;;14.90;99.90;;;;;;20754558;28;20297;-54
2022/09/05 18:54:15;;;;;;;29.80;23.27;;;14.90;99.90;;;;;;20746772;28;20100;-54
2022/09/05 19:04:42;;;;;;;29.35;22.15;;;14.90;99.90;;;;;;20742341;28;20483;-60
2022/09/05 19:14:53;;;;;;;29.15;23.70;;;14.90;99.90;;;;;;20734817;28;20085;-52
2022/09/05 19:24:57;;;;;;;27.30;23.40;;;14.80;99.90;;;;;;20748568;28;20490;-52
2022/09/05 19:35:00;;;;;;;31.42;27.58;;;14.50;99.90;;;;;;20742055;28;20069;-50
2022/09/05 19:45:05;;;;;;;42.08;31.33;;;14.30;99.90;;;;;;20747370;28;20099;-53
2022/09/05 19:55:21;;;;;;;36.33;28.85;;;14.10;99.90;;;;;;20729727;28;20080;-54
2022/09/05 20:05:24;;;;;;;33.47;27.55;;;13.90;99.90;;;;;;20762991;28;20457;-53
2022/09/05 20:15:35;;;;;;;36.30;29.13;;;13.80;99.90;;;;;;20713965;28;20034;-52
2022/09/05 20:25:45;;;;;;;38.42;29.08;;;13.90;99.90;;;;;;20684968;28;20092;-59
2022/09/05 20:35:53;;;;;;;36.88;29.27;;;13.90;99.90;;;;;;20678983;28;20042;-55
2022/09/05 20:46:00;;;;;;;42.45;31.92;;;13.80;99.90;;;;;;20652958;28;20112;-52
2022/09/05 20:56:06;;;;;;;48.70;37.42;;;13.70;99.90;;;;;;20669069;28;20101;-52
2022/09/05 21:06:29;;;;;;;46.40;35.45;;;13.70;99.90;;;;;;20692800;28;20045;-59
2022/09/05 21:17:00;;;;;;;47.22;34.42;;;13.70;99.90;;;;;;20711935;28;20088;-54
2022/09/05 21:27:32;;;;;;;48.20;35.17;;;13.60;99.90;;;;;;20467133;28;20051;-59
2022/09/05 21:37:37;;;;;;;46.42;35.03;;;13.70;99.90;;;;;;20454312;29;20432;-59
2022/09/05 21:47:41;;;;;;;41.10;32.72;;;13.70;99.90;;;;;;20467843;28;20051;-54
2022/09/05 21:57:46;;;;;;;51.83;37.70;;;13.60;99.90;;;;;;20484273;28;20051;-53
2022/09/05 22:07:52;;;;;;;56.35;38.97;;;13.60;99.90;;;;;;20597887;28;20100;-59
2022/09/05 22:17:56;;;;;;;60.33;40.47;;;13.50;99.90;;;;;;20704010;28;20038;-53
2022/09/05 22:28:18;;;;;;;55.65;39.90;;;13.40;99.90;;;;;;20735318;28;20572;-60
2022/09/05 22:38:21;;;;;;;55.60;39.30;;;13.50;99.90;;;;;;20702820;28;20382;-54
2022/09/05 22:48:24;;;;;;;48.92;36.72;;;13.50;99.90;;;;;;20702052;28;20084;-59
2022/09/05 22:58:27;;;;;;;49.08;36.00;;;13.60;99.90;;;;;;20726121;28;20041;-53
2022/09/05 23:08:30;;;;;;;48.72;35.72;;;13.60;99.90;;;;;;20742112;28;20029;-60
2022/09/05 23:18:33;;;;;;;48.20;35.55;;;13.40;99.90;;;;;;20720412;28;20058;-60
2022/09/05 23:28:37;;;;;;;48.17;35.78;;;13.30;99.90;;;;;;20746528;28;20038;-55
2022/09/05 23:38:42;;;;;;;44.60;33.30;;;13.20;99.90;;;;;;20742428;28;20037;-52
2022/09/05 23:48:46;;;;;;;43.47;32.47;;;13.10;99.90;;;;;;20715140;28;20041;-53
2022/09/05 23:58:49;;;;;;;51.20;35.88;;;13.00;99.90;;;;;;20730289;28;20038;-57
